Terminal Aerodrome Forecast
Issued by NWS

Home | Current Version | Previous Version | Graphics & Text | Print | Product List | Glossary On
Versions: 1 2 3 4 5 6 7 8 9 10 11 12 13 14 15
000
FTUS43 KGRB 202333
TAFAUW
TAF
KAUW 202333Z 2100/2124 24006KT P6SM SCT100
     FM210300 26003KT P6SM SCT035 BKN070
     FM211000 VRB03KT 4SM BR SCT050 BKN150
      TEMPO 2110/2113 2SM BR
     FM211300 14003KT P6SM SCT040 BKN090
     FM211800 20005KT P6SM SCT040 BKN090 PROB30 2118/2124 3SM -TSRA
      BKN040CB=

USA.gov is the U.S. government's official web portal to all federal, state and local government web resources and services.